LAN1498 KPDX-KSEA
Flight info
| Callsign | LAN1498 |
|---|---|
| Flight time | 0h 24m |
| Altitude | 14000 |
| Route | COUGA KRIEG HAWKZ8 |
| Aircraft | A320/M-SDE3FGHIRWY/LB1 |
Departure
| Time | 2026-05-04 01:37 |
|---|---|
| Airport | Portland International Airport (KPDX) |
Arrival
| Time | 2026-05-04 02:02 |
|---|---|
| Airport | Seattle–Tacoma International Airport (KSEA) |
| Time | Latitude | Longitude | Altitude | Speed | Heading |
|---|---|---|---|---|---|
| 2026-05-04 01:18 | 45.58833 | -122.59639 | 35 ft | 0 kts | 43° |
| 2026-05-04 01:28 | 45.58830 | -122.59642 | 37 ft | 2 kts | 42° |
| 2026-05-04 01:28 | 45.58820 | -122.59655 | 35 ft | 2 kts | 43° |
| 2026-05-04 01:28 | 45.58810 | -122.59668 | 34 ft | 2 kts | 42° |
| 2026-05-04 01:28 | 45.58800 | -122.59681 | 34 ft | 1 kts | 42° |
| 2026-05-04 01:29 | 45.58794 | -122.59690 | 37 ft | 1 kts | 45° |
| 2026-05-04 01:29 | 45.58788 | -122.59698 | 36 ft | 1 kts | 49° |
| 2026-05-04 01:29 | 45.58784 | -122.59705 | 34 ft | 1 kts | 54° |
| 2026-05-04 01:29 | 45.58781 | -122.59712 | 35 ft | 1 kts | 68° |
| 2026-05-04 01:30 | 45.58779 | -122.59719 | 35 ft | 1 kts | 113° |
| 2026-05-04 01:30 | 45.58781 | -122.59726 | 35 ft | 1 kts | 109° |
| 2026-05-04 01:30 | 45.58782 | -122.59733 | 34 ft | 1 kts | 118° |
| 2026-05-04 01:32 | 45.58776 | -122.59716 | 35 ft | 3 kts | 119° |
| 2026-05-04 01:32 | 45.58749 | -122.59689 | 36 ft | 6 kts | 165° |
| 2026-05-04 01:32 | 45.58699 | -122.59682 | 36 ft | 8 kts | 162° |
| 2026-05-04 01:32 | 45.58654 | -122.59620 | 35 ft | 10 kts | 122° |
| 2026-05-04 01:33 | 45.58616 | -122.59524 | 35 ft | 12 kts | 118° |
| 2026-05-04 01:33 | 45.58571 | -122.59408 | 33 ft | 15 kts | 120° |
| 2026-05-04 01:33 | 45.58514 | -122.59262 | 31 ft | 17 kts | 118° |
| 2026-05-04 01:33 | 45.58462 | -122.59122 | 29 ft | 16 kts | 118° |
| 2026-05-04 01:34 | 45.58410 | -122.58990 | 31 ft | 15 kts | 119° |
| 2026-05-04 01:34 | 45.58366 | -122.58876 | 33 ft | 12 kts | 118° |
| 2026-05-04 01:34 | 45.58329 | -122.58783 | 33 ft | 11 kts | 120° |
| 2026-05-04 01:34 | 45.58293 | -122.58693 | 32 ft | 10 kts | 119° |
| 2026-05-04 01:35 | 45.58262 | -122.58611 | 33 ft | 8 kts | 118° |
| 2026-05-04 01:35 | 45.58236 | -122.58541 | 33 ft | 8 kts | 117° |
| 2026-05-04 01:35 | 45.58204 | -122.58458 | 30 ft | 10 kts | 120° |
| 2026-05-04 01:35 | 45.58159 | -122.58378 | 30 ft | 10 kts | 150° |
| 2026-05-04 01:36 | 45.58097 | -122.58391 | 31 ft | 8 kts | 217° |
| 2026-05-04 01:36 | 45.58082 | -122.58441 | 32 ft | 4 kts | 266° |
| 2026-05-04 01:36 | 45.58086 | -122.58479 | 33 ft | 6 kts | 287° |
| 2026-05-04 01:36 | 45.58179 | -122.58715 | 34 ft | 63 kts | 298° |
| 2026-05-04 01:37 | 45.58515 | -122.59579 | 35 ft | 128 kts | 299° |
| 2026-05-04 01:37 | 45.59025 | -122.60876 | 115 ft | 168 kts | 300° |
| 2026-05-04 01:37 | 45.59580 | -122.62268 | 997 ft | 157 kts | 302° |
| 2026-05-04 01:37 | 45.60150 | -122.63663 | 1560 ft | 172 kts | 304° |
| 2026-05-04 01:38 | 45.60921 | -122.65033 | 1954 ft | 185 kts | 331° |
| 2026-05-04 01:38 | 45.62231 | -122.65477 | 2277 ft | 209 kts | 358° |
| 2026-05-04 01:38 | 45.63775 | -122.65513 | 2719 ft | 234 kts | 360° |
| 2026-05-04 01:38 | 45.65478 | -122.65492 | 3292 ft | 253 kts | 1° |
| 2026-05-04 01:39 | 45.67273 | -122.65482 | 4129 ft | 261 kts | 1° |
| 2026-05-04 01:39 | 45.69116 | -122.65504 | 4997 ft | 268 kts | 360° |
| 2026-05-04 01:39 | 45.71004 | -122.65559 | 5893 ft | 274 kts | 360° |
| 2026-05-04 01:39 | 45.72926 | -122.65643 | 6743 ft | 280 kts | 359° |
| 2026-05-04 01:40 | 45.74884 | -122.65744 | 7647 ft | 283 kts | 359° |
| 2026-05-04 01:40 | 45.76864 | -122.65855 | 8558 ft | 286 kts | 358° |
| 2026-05-04 01:40 | 45.78859 | -122.65970 | 9487 ft | 289 kts | 358° |
| 2026-05-04 01:40 | 45.80889 | -122.66087 | 10272 ft | 298 kts | 358° |
| 2026-05-04 01:41 | 45.83047 | -122.66210 | 10589 ft | 321 kts | 358° |
| 2026-05-04 01:41 | 45.85364 | -122.66345 | 10859 ft | 345 kts | 358° |
| 2026-05-04 01:41 | 45.87836 | -122.66491 | 11041 ft | 368 kts | 358° |
| 2026-05-04 01:41 | 45.90471 | -122.66645 | 11347 ft | 385 kts | 358° |
| 2026-05-04 01:42 | 45.93173 | -122.66801 | 11978 ft | 391 kts | 358° |
| 2026-05-04 01:42 | 45.95872 | -122.66956 | 12666 ft | 395 kts | 358° |
| 2026-05-04 01:42 | 45.98652 | -122.67116 | 13356 ft | 399 kts | 358° |
| 2026-05-04 01:42 | 46.01416 | -122.67278 | 13844 ft | 401 kts | 358° |
| 2026-05-04 01:43 | 46.04203 | -122.67444 | 13997 ft | 401 kts | 358° |
| 2026-05-04 01:43 | 46.07063 | -122.67612 | 14025 ft | 411 kts | 358° |
| 2026-05-04 01:43 | 46.09930 | -122.67874 | 14034 ft | 414 kts | 353° |
| 2026-05-04 01:43 | 46.12757 | -122.68426 | 14037 ft | 416 kts | 353° |
| 2026-05-04 01:44 | 46.15623 | -122.68991 | 14034 ft | 416 kts | 353° |
| 2026-05-04 01:44 | 46.18498 | -122.69557 | 14037 ft | 417 kts | 353° |
| 2026-05-04 01:44 | 46.21367 | -122.70122 | 14038 ft | 417 kts | 352° |
| 2026-05-04 01:44 | 46.24246 | -122.70691 | 14037 ft | 416 kts | 353° |
| 2026-05-04 01:45 | 46.27110 | -122.71258 | 14045 ft | 417 kts | 353° |
| 2026-05-04 01:45 | 46.29984 | -122.71823 | 14047 ft | 417 kts | 353° |
| 2026-05-04 01:45 | 46.35764 | -122.72364 | 14051 ft | 417 kts | 359° |
| 2026-05-04 01:46 | 46.38659 | -122.72459 | 14056 ft | 416 kts | 359° |
| 2026-05-04 01:46 | 46.41563 | -122.72555 | 14054 ft | 417 kts | 359° |
| 2026-05-04 01:46 | 46.44448 | -122.72653 | 14058 ft | 416 kts | 359° |
| 2026-05-04 01:46 | 46.47352 | -122.72758 | 14059 ft | 416 kts | 359° |
| 2026-05-04 01:47 | 46.50236 | -122.72867 | 14053 ft | 413 kts | 359° |
| 2026-05-04 01:47 | 46.53039 | -122.72972 | 14047 ft | 391 kts | 359° |
| 2026-05-04 01:47 | 46.55690 | -122.73074 | 14051 ft | 371 kts | 359° |
| 2026-05-04 01:47 | 46.58206 | -122.73169 | 14048 ft | 353 kts | 359° |
| 2026-05-04 01:48 | 46.60604 | -122.73258 | 14054 ft | 338 kts | 359° |
| 2026-05-04 01:48 | 46.62936 | -122.73344 | 14061 ft | 333 kts | 360° |
| 2026-05-04 01:48 | 46.65251 | -122.73429 | 14063 ft | 335 kts | 360° |
| 2026-05-04 01:48 | 46.67625 | -122.73511 | 14056 ft | 344 kts | 359° |
| 2026-05-04 01:49 | 46.69984 | -122.73593 | 14058 ft | 339 kts | 360° |
| 2026-05-04 01:49 | 46.72341 | -122.73675 | 14053 ft | 338 kts | 360° |
| 2026-05-04 01:49 | 46.74690 | -122.73607 | 14060 ft | 337 kts | 7° |
| 2026-05-04 01:49 | 46.76976 | -122.73026 | 14059 ft | 330 kts | 15° |
| 2026-05-04 01:50 | 46.79144 | -122.71965 | 13942 ft | 329 kts | 23° |
| 2026-05-04 01:50 | 46.81185 | -122.70435 | 13473 ft | 329 kts | 32° |
| 2026-05-04 01:50 | 46.83034 | -122.68495 | 13023 ft | 327 kts | 40° |
| 2026-05-04 01:50 | 46.84769 | -122.66403 | 12819 ft | 315 kts | 40° |
| 2026-05-04 01:51 | 46.86348 | -122.64350 | 12682 ft | 293 kts | 43° |
| 2026-05-04 01:51 | 46.87788 | -122.62369 | 12469 ft | 277 kts | 44° |
| 2026-05-04 01:51 | 46.89161 | -122.60439 | 12008 ft | 272 kts | 44° |
| 2026-05-04 01:51 | 46.90522 | -122.58523 | 11483 ft | 270 kts | 44° |
| 2026-05-04 01:52 | 46.91860 | -122.56600 | 11021 ft | 273 kts | 45° |
| 2026-05-04 01:52 | 46.93195 | -122.54589 | 10365 ft | 276 kts | 46° |
| 2026-05-04 01:52 | 46.94508 | -122.52576 | 9952 ft | 269 kts | 46° |
| 2026-05-04 01:52 | 46.95793 | -122.50606 | 9503 ft | 265 kts | 45° |
| 2026-05-04 01:53 | 46.97068 | -122.48661 | 9380 ft | 267 kts | 45° |
| 2026-05-04 01:53 | 46.98422 | -122.46806 | 9260 ft | 266 kts | 36° |
| 2026-05-04 01:53 | 46.99992 | -122.45362 | 8874 ft | 267 kts | 29° |
| 2026-05-04 01:53 | 47.01599 | -122.44007 | 8571 ft | 264 kts | 28° |
| 2026-05-04 01:54 | 47.03186 | -122.42676 | 8172 ft | 264 kts | 29° |
| 2026-05-04 01:54 | 47.04766 | -122.41348 | 7874 ft | 262 kts | 28° |
| 2026-05-04 01:54 | 47.06337 | -122.40023 | 7567 ft | 259 kts | 28° |
| 2026-05-04 01:54 | 47.07896 | -122.38703 | 7261 ft | 256 kts | 28° |
| 2026-05-04 01:55 | 47.09448 | -122.37386 | 6852 ft | 257 kts | 28° |
| 2026-05-04 01:55 | 47.10988 | -122.36079 | 6496 ft | 256 kts | 28° |
| 2026-05-04 01:55 | 47.12562 | -122.34883 | 6164 ft | 252 kts | 19° |
| 2026-05-04 01:55 | 47.14240 | -122.34191 | 5799 ft | 249 kts | 13° |
| 2026-05-04 01:56 | 47.15904 | -122.33569 | 5537 ft | 244 kts | 13° |
| 2026-05-04 01:56 | 47.17525 | -122.32960 | 5307 ft | 237 kts | 13° |
| 2026-05-04 01:56 | 47.19100 | -122.32365 | 5118 ft | 232 kts | 13° |
| 2026-05-04 01:56 | 47.20671 | -122.31989 | 4898 ft | 227 kts | 0° |
| 2026-05-04 01:57 | 47.22235 | -122.31972 | 4581 ft | 228 kts | 360° |
| 2026-05-04 01:57 | 47.23838 | -122.31961 | 4264 ft | 227 kts | 360° |
| 2026-05-04 01:57 | 47.25423 | -122.31953 | 3966 ft | 228 kts | 0° |
| 2026-05-04 01:57 | 47.26994 | -122.31942 | 3663 ft | 223 kts | 0° |
| 2026-05-04 01:58 | 47.28497 | -122.31931 | 3396 ft | 214 kts | 1° |
| 2026-05-04 01:58 | 47.29963 | -122.31920 | 3111 ft | 208 kts | 0° |
| 2026-05-04 01:58 | 47.31355 | -122.31911 | 2849 ft | 193 kts | 0° |
| 2026-05-04 01:58 | 47.32619 | -122.31902 | 2614 ft | 173 kts | 1° |
| 2026-05-04 01:59 | 47.33768 | -122.31891 | 2409 ft | 155 kts | 1° |
| 2026-05-04 01:59 | 47.34792 | -122.31883 | 2188 ft | 141 kts | 1° |
| 2026-05-04 01:59 | 47.35753 | -122.31875 | 2009 ft | 136 kts | 1° |
| 2026-05-04 01:59 | 47.36690 | -122.31868 | 1827 ft | 135 kts | 0° |
| 2026-05-04 02:00 | 47.37624 | -122.31860 | 1646 ft | 134 kts | 0° |
| 2026-05-04 02:00 | 47.38554 | -122.31851 | 1464 ft | 134 kts | 359° |
| 2026-05-04 02:00 | 47.39482 | -122.31842 | 1288 ft | 133 kts | 360° |
| 2026-05-04 02:00 | 47.40417 | -122.31833 | 1100 ft | 134 kts | 1° |
| 2026-05-04 02:01 | 47.41343 | -122.31835 | 955 ft | 133 kts | 358° |
| 2026-05-04 02:01 | 47.42256 | -122.31841 | 815 ft | 132 kts | 358° |
| 2026-05-04 02:01 | 47.43170 | -122.31846 | 658 ft | 134 kts | 1° |
| 2026-05-04 02:01 | 47.44118 | -122.31812 | 467 ft | 132 kts | 1° |
| 2026-05-04 02:02 | 47.45002 | -122.31791 | 396 ft | 121 kts | 0° |
| 2026-05-04 02:02 | 47.45554 | -122.31793 | 390 ft | 13 kts | 359° |
| 2026-05-04 02:02 | 47.45646 | -122.31794 | 394 ft | 14 kts | 359° |
| 2026-05-04 02:02 | 47.45752 | -122.31783 | 389 ft | 16 kts | 12° |
| 2026-05-04 02:03 | 47.45864 | -122.31719 | 394 ft | 18 kts | 26° |
| 2026-05-04 02:03 | 47.45966 | -122.31596 | 390 ft | 20 kts | 54° |
| 2026-05-04 02:03 | 47.46011 | -122.31402 | 394 ft | 15 kts | 90° |
| 2026-05-04 02:03 | 47.46014 | -122.31262 | 394 ft | 11 kts | 89° |
| 2026-05-04 02:04 | 47.46010 | -122.31154 | 393 ft | 10 kts | 93° |
| 2026-05-04 02:04 | 47.46010 | -122.31058 | 392 ft | 9 kts | 91° |
| 2026-05-04 02:04 | 47.46009 | -122.30972 | 392 ft | 8 kts | 91° |
| 2026-05-04 02:04 | 47.46008 | -122.30895 | 390 ft | 9 kts | 91° |
| 2026-05-04 02:05 | 47.46005 | -122.30730 | 392 ft | 23 kts | 92° |
| 2026-05-04 02:05 | 47.45900 | -122.30622 | 392 ft | 20 kts | 182° |
| 2026-05-04 02:05 | 47.45769 | -122.30619 | 388 ft | 18 kts | 179° |
| 2026-05-04 02:05 | 47.45648 | -122.30621 | 394 ft | 17 kts | 180° |